Terminal Aerodrome Forecast
Issued by NWS

Home | Current Version | Previous Version | Graphics & Text | Print | Product List | Glossary On
Versions: 1 2 3 4 5 6 7 8 9 10 11 12 13 14 15
160
FTUS43 KIWX 210531
TAFSBN
TAF
KSBN 210531Z 2106/2206 16013KT P6SM BKN070 OVC200
     FM211100 21011KT 5SM BR VCSH OVC025
      TEMPO 2113/2116 3SM -SHRA BR BKN010
     FM211800 24007KT P6SM BKN025
     FM220400 VRB04KT 3SM BR SKC=

USA.gov is the U.S. government's official web portal to all federal, state and local government web resources and services.